sensor_id;sensor_type;location;lat;lon;timestamp;pressure;altitude;pressure_sealevel;temperature;humidity
56270;BME280;42176;43.240;27.880;2022-12-07T00:01:43;100385.38;;;7.28;100.00
56270;BME280;42176;43.240;27.880;2022-12-07T00:04:13;100376.59;;;7.25;100.00
56270;BME280;42176;43.240;27.880;2022-12-07T00:06:44;100387.25;;;6.91;100.00
56270;BME280;42176;43.240;27.880;2022-12-07T00:09:15;100389.91;;;6.97;100.00
56270;BME280;42176;43.240;27.880;2022-12-07T00:11:41;100396.88;;;7.13;100.00
56270;BME280;42176;43.240;27.880;2022-12-07T00:14:10;100396.81;;;7.23;100.00
56270;BME280;42176;43.240;27.880;2022-12-07T00:16:36;100392.56;;;6.92;100.00
56270;BME280;42176;43.240;27.880;2022-12-07T00:19:03;100396.03;;;6.97;100.00
56270;BME280;42176;43.240;27.880;2022-12-07T00:21:31;100397.72;;;7.11;100.00
56270;BME280;42176;43.240;27.880;2022-12-07T00:23:57;100407.34;;;7.27;100.00
56270;BME280;42176;43.240;27.880;2022-12-07T00:26:28;100400.25;;;7.43;100.00
56270;BME280;42176;43.240;27.880;2022-12-07T00:28:57;100400.19;;;7.59;100.00
56270;BME280;42176;43.240;27.880;2022-12-07T00:31:25;100401.84;;;7.72;100.00
56270;BME280;42176;43.240;27.880;2022-12-07T00:33:51;100378.53;;;6.75;100.00
56270;BME280;42176;43.240;27.880;2022-12-07T00:36:22;100382.94;;;6.68;100.00
56270;BME280;42176;43.240;27.880;2022-12-07T00:38:48;100393.41;;;6.86;100.00
56270;BME280;42176;43.240;27.880;2022-12-07T00:41:16;100390.75;;;7.04;100.00
56270;BME280;42176;43.240;27.880;2022-12-07T00:43:42;100404.66;;;7.38;100.00
56270;BME280;42176;43.240;27.880;2022-12-07T00:46:08;100389.06;;;6.72;100.00
56270;BME280;42176;43.240;27.880;2022-12-07T00:48:34;100394.28;;;6.92;100.00
56270;BME280;42176;43.240;27.880;2022-12-07T00:50:59;100391.53;;;7.26;100.00
56270;BME280;42176;43.240;27.880;2022-12-07T00:53:26;100392.56;;;6.78;100.00
56270;BME280;42176;43.240;27.880;2022-12-07T00:55:51;100398.69;;;6.86;100.00
56270;BME280;42176;43.240;27.880;2022-12-07T00:58:18;100399.53;;;6.99;100.00
56270;BME280;42176;43.240;27.880;2022-12-07T01:00:44;100399.47;;;7.18;100.00
56270;BME280;42176;43.240;27.880;2022-12-07T01:03:11;100394.22;;;7.15;100.00
56270;BME280;42176;43.240;27.880;2022-12-07T01:05:37;100372.38;;;6.77;100.00
56270;BME280;42176;43.240;27.880;2022-12-07T01:08:03;100382.00;;;6.94;100.00
56270;BME280;42176;43.240;27.880;2022-12-07T01:10:29;100385.44;;;7.11;100.00
56270;BME280;42176;43.240;27.880;2022-12-07T01:12:56;100365.19;;;7.20;100.00
56270;BME280;42176;43.240;27.880;2022-12-07T01:15:21;100373.97;;;7.28;100.00
56270;BME280;42176;43.240;27.880;2022-12-07T01:17:47;100358.28;;;6.88;100.00
56270;BME280;42176;43.240;27.880;2022-12-07T01:20:13;100362.66;;;6.98;100.00
56270;BME280;42176;43.240;27.880;2022-12-07T01:22:39;100366.09;;;7.11;100.00
56270;BME280;42176;43.240;27.880;2022-12-07T01:25:06;100371.31;;;7.28;100.00
56270;BME280;42176;43.240;27.880;2022-12-07T01:27:33;100364.50;;;6.76;100.00
56270;BME280;42176;43.240;27.880;2022-12-07T01:29:59;100341.59;;;6.87;100.00
56270;BME280;42176;43.240;27.880;2022-12-07T01:32:25;100355.56;;;7.09;100.00
56270;BME280;42176;43.240;27.880;2022-12-07T01:34:50;100347.63;;;7.23;100.00
56270;BME280;42176;43.240;27.880;2022-12-07T01:37:15;100340.56;;;7.21;100.00
56270;BME280;42176;43.240;27.880;2022-12-07T01:39:41;100331.13;;;6.75;100.00
56270;BME280;42176;43.240;27.880;2022-12-07T01:42:11;100342.44;;;6.97;100.00
56270;BME280;42176;43.240;27.880;2022-12-07T01:47:39;100337.09;;;7.15;100.00
56270;BME280;42176;43.240;27.880;2022-12-07T01:50:06;100318.75;;;6.89;100.00
56270;BME280;42176;43.240;27.880;2022-12-07T01:52:33;100333.63;;;7.04;100.00
56270;BME280;42176;43.240;27.880;2022-12-07T01:55:12;100329.16;;;7.23;100.00
56270;BME280;42176;43.240;27.880;2022-12-07T01:57:41;100325.88;;;6.64;100.00
56270;BME280;42176;43.240;27.880;2022-12-07T02:00:10;100330.22;;;6.74;100.00
56270;BME280;42176;43.240;27.880;2022-12-07T02:02:44;100317.00;;;6.86;100.00
56270;BME280;42176;43.240;27.880;2022-12-07T02:05:13;100337.06;;;7.23;100.00
56270;BME280;42176;43.240;27.880;2022-12-07T02:07:39;100322.97;;;7.26;100.00
56270;BME280;42176;43.240;27.880;2022-12-07T02:10:16;100326.38;;;7.48;100.00
56270;BME280;42176;43.240;27.880;2022-12-07T02:12:44;100320.84;;;7.85;100.00
56270;BME280;42176;43.240;27.880;2022-12-07T02:15:12;100311.59;;;7.16;100.00
56270;BME280;42176;43.240;27.880;2022-12-07T02:31:15;100313.34;;;7.20;100.00
56270;BME280;42176;43.240;27.880;2022-12-07T02:33:48;100317.69;;;7.29;100.00
56270;BME280;42176;43.240;27.880;2022-12-07T02:36:26;100310.81;;;7.00;100.00
56270;BME280;42176;43.240;27.880;2022-12-07T02:39:01;100314.38;;;6.85;100.00
56270;BME280;42176;43.240;27.880;2022-12-07T02:41:35;100314.34;;;6.99;100.00
56270;BME280;42176;43.240;27.880;2022-12-07T02:44:24;100324.81;;;7.14;100.00
56270;BME280;42176;43.240;27.880;2022-12-07T02:46:54;100317.78;;;7.07;100.00
56270;BME280;42176;43.240;27.880;2022-12-07T02:49:22;100268.81;;;6.60;100.00
56270;BME280;42176;43.240;27.880;2022-12-07T02:51:49;100307.38;;;6.79;100.00
56270;BME280;42176;43.240;27.880;2022-12-07T02:54:19;100323.06;;;7.10;100.00
56270;BME280;42176;43.240;27.880;2022-12-07T02:57:03;100310.97;;;6.44;100.00
56270;BME280;42176;43.240;27.880;2022-12-07T03:08:09;100312.44;;;7.26;100.00
56270;BME280;42176;43.240;27.880;2022-12-07T03:10:52;100291.22;;;7.44;100.00
56270;BME280;42176;43.240;27.880;2022-12-07T03:16:14;100288.06;;;6.80;100.00
56270;BME280;42176;43.240;27.880;2022-12-07T03:18:53;100294.13;;;6.95;100.00
56270;BME280;42176;43.240;27.880;2022-12-07T03:21:31;100294.03;;;7.15;100.00
56270;BME280;42176;43.240;27.880;2022-12-07T03:24:00;100296.00;;;6.69;100.00
56270;BME280;42176;43.240;27.880;2022-12-07T03:26:35;100305.56;;;6.91;100.00
56270;BME280;42176;43.240;27.880;2022-12-07T03:29:08;100306.41;;;7.07;100.00
56270;BME280;42176;43.240;27.880;2022-12-07T03:31:39;100307.19;;;7.21;100.00
56270;BME280;42176;43.240;27.880;2022-12-07T03:34:11;100304.47;;;7.37;100.00
56270;BME280;42176;43.240;27.880;2022-12-07T03:36:45;100297.31;;;7.53;100.00
56270;BME280;42176;43.240;27.880;2022-12-07T03:41:59;100266.88;;;6.99;100.00
56270;BME280;42176;43.240;27.880;2022-12-07T03:44:26;100263.56;;;6.53;100.00
56270;BME280;42176;43.240;27.880;2022-12-07T03:47:05;100279.28;;;6.75;100.00
56270;BME280;42176;43.240;27.880;2022-12-07T03:52:52;100292.34;;;6.98;100.00
56270;BME280;42176;43.240;27.880;2022-12-07T03:55:26;100294.31;;;6.45;100.00
56270;BME280;42176;43.240;27.880;2022-12-07T03:57:56;100289.03;;;6.51;100.00
56270;BME280;42176;43.240;27.880;2022-12-07T04:00:23;100297.75;;;6.67;100.00
56270;BME280;42176;43.240;27.880;2022-12-07T04:02:52;100290.72;;;6.66;100.00
56270;BME280;42176;43.240;27.880;2022-12-07T04:05:17;100289.97;;;6.16;100.00
56270;BME280;42176;43.240;27.880;2022-12-07T04:07:43;100299.63;;;6.28;100.00
56270;BME280;42176;43.240;27.880;2022-12-07T04:10:09;100302.25;;;6.36;100.00
56270;BME280;42176;43.240;27.880;2022-12-07T04:12:35;100305.69;;;6.63;100.00
56270;BME280;42176;43.240;27.880;2022-12-07T04:15:00;100291.72;;;5.95;100.00
56270;BME280;42176;43.240;27.880;2022-12-07T04:17:26;100291.72;;;6.11;100.00
56270;BME280;42176;43.240;27.880;2022-12-07T04:19:51;100285.56;;;6.17;100.00
56270;BME280;42176;43.240;27.880;2022-12-07T04:22:17;100275.94;;;6.25;100.00
56270;BME280;42176;43.240;27.880;2022-12-07T04:24:42;100286.44;;;6.30;100.00
56270;BME280;42176;43.240;27.880;2022-12-07T04:27:08;100280.31;;;5.97;100.00
56270;BME280;42176;43.240;27.880;2022-12-07T04:29:33;100271.53;;;5.98;100.00
56270;BME280;42176;43.240;27.880;2022-12-07T04:31:59;100280.31;;;6.09;100.00
56270;BME280;42176;43.240;27.880;2022-12-07T04:34:24;100284.69;;;6.32;100.00
56270;BME280;42176;43.240;27.880;2022-12-07T04:36:50;100258.38;;;5.79;100.00
56270;BME280;42176;43.240;27.880;2022-12-07T04:39:22;100265.41;;;5.52;100.00
56270;BME280;42176;43.240;27.880;2022-12-07T04:41:48;100277.69;;;5.67;100.00
56270;BME280;42176;43.240;27.880;2022-12-07T04:44:14;100281.19;;;5.80;100.00
56270;BME280;42176;43.240;27.880;2022-12-07T04:46:41;100291.75;;;6.20;100.00
56270;BME280;42176;43.240;27.880;2022-12-07T04:49:06;100289.06;;;5.40;100.00
56270;BME280;42176;43.240;27.880;2022-12-07T04:51:32;100285.56;;;5.38;100.00
56270;BME280;42176;43.240;27.880;2022-12-07T04:53:57;100295.22;;;5.57;100.00
56270;BME280;42176;43.240;27.880;2022-12-07T04:56:23;100294.34;;;5.72;100.00
56270;BME280;42176;43.240;27.880;2022-12-07T04:58:51;100288.16;;;5.21;100.00
56270;BME280;42176;43.240;27.880;2022-12-07T05:01:18;100286.41;;;5.33;100.00
56270;BME280;42176;43.240;27.880;2022-12-07T05:03:43;100282.91;;;5.47;100.00
56270;BME280;42176;43.240;27.880;2022-12-07T05:06:10;100291.72;;;5.95;100.00
56270;BME280;42176;43.240;27.880;2022-12-07T05:08:36;100291.66;;;5.21;100.00
56270;BME280;42176;43.240;27.880;2022-12-07T05:11:02;100290.78;;;5.31;100.00
56270;BME280;42176;43.240;27.880;2022-12-07T05:13:28;100294.34;;;5.64;100.00
56270;BME280;42176;43.240;27.880;2022-12-07T05:15:54;100298.63;;;5.07;100.00
56270;BME280;42176;43.240;27.880;2022-12-07T05:18:19;100295.97;;;5.02;100.00
56270;BME280;42176;43.240;27.880;2022-12-07T05:20:45;100300.38;;;5.11;100.00
56270;BME280;42176;43.240;27.880;2022-12-07T05:23:10;100333.72;;;5.33;100.00
56270;BME280;42176;43.240;27.880;2022-12-07T05:25:37;100339.03;;;5.49;100.00
56270;BME280;42176;43.240;27.880;2022-12-07T05:28:03;100339.03;;;5.61;100.00
56270;BME280;42176;43.240;27.880;2022-12-07T05:30:28;100322.34;;;5.39;100.00
56270;BME280;42176;43.240;27.880;2022-12-07T05:32:54;100305.50;;;4.77;100.00
56270;BME280;42176;43.240;27.880;2022-12-07T05:35:20;100303.81;;;4.88;100.00
56270;BME280;42176;43.240;27.880;2022-12-07T05:37:46;100290.69;;;5.00;100.00
56270;BME280;42176;43.240;27.880;2022-12-07T05:40:14;100316.09;;;4.95;100.00
56270;BME280;42176;43.240;27.880;2022-12-07T05:42:40;100300.19;;;4.63;100.00
56270;BME280;42176;43.240;27.880;2022-12-07T05:45:07;100304.75;;;5.06;100.00
56270;BME280;42176;43.240;27.880;2022-12-07T05:47:33;100305.75;;;5.57;100.00
56270;BME280;42176;43.240;27.880;2022-12-07T05:49:58;100300.50;;;6.05;100.00
56270;BME280;42176;43.240;27.880;2022-12-07T05:52:24;100289.88;;;6.60;100.00
56270;BME280;42176;43.240;27.880;2022-12-07T05:54:49;100279.13;;;7.12;100.00
56270;BME280;42176;43.240;27.880;2022-12-07T05:57:15;100268.16;;;7.71;100.00
56270;BME280;42176;43.240;27.880;2022-12-07T05:59:41;100258.97;;;8.13;100.00
56270;BME280;42176;43.240;27.880;2022-12-07T06:02:09;100260.06;;;6.39;100.00
56270;BME280;42176;43.240;27.880;2022-12-07T06:04:37;100263.66;;;6.19;100.00
56270;BME280;42176;43.240;27.880;2022-12-07T06:07:04;100266.16;;;6.63;100.00
56270;BME280;42176;43.240;27.880;2022-12-07T06:09:30;100259.97;;;6.76;100.00
56270;BME280;42176;43.240;27.880;2022-12-07T06:11:57;100268.03;;;5.52;100.00
56270;BME280;42176;43.240;27.880;2022-12-07T06:14:42;100274.19;;;6.10;100.00
56270;BME280;42176;43.240;27.880;2022-12-07T06:17:08;100281.03;;;6.79;100.00
56270;BME280;42176;43.240;27.880;2022-12-07T06:19:34;100279.31;;;6.70;100.00
56270;BME280;42176;43.240;27.880;2022-12-07T06:22:01;100244.34;;;5.99;100.00
56270;BME280;42176;43.240;27.880;2022-12-07T06:24:26;100279.28;;;6.81;100.00
56270;BME280;42176;43.240;27.880;2022-12-07T06:26:52;100272.00;;;7.30;100.00
56270;BME280;42176;43.240;27.880;2022-12-07T06:29:18;100264.47;;;7.94;100.00
56270;BME280;42176;43.240;27.880;2022-12-07T06:31:44;100266.03;;;6.97;100.00
56270;BME280;42176;43.240;27.880;2022-12-07T06:34:15;100268.50;;;7.19;100.00
56270;BME280;42176;43.240;27.880;2022-12-07T06:36:41;100268.94;;;7.83;100.00
56270;BME280;42176;43.240;27.880;2022-12-07T06:39:07;100273.94;;;8.14;100.00
56270;BME280;42176;43.240;27.880;2022-12-07T06:41:35;100272.25;;;6.83;100.00
56270;BME280;42176;43.240;27.880;2022-12-07T06:44:02;100276.16;;;7.57;100.00
56270;BME280;42176;43.240;27.880;2022-12-07T06:46:27;100276.50;;;8.23;100.00
56270;BME280;42176;43.240;27.880;2022-12-07T06:48:53;100275.13;;;8.71;100.00
56270;BME280;42176;43.240;27.880;2022-12-07T06:51:18;100255.34;;;9.03;100.00
56270;BME280;42176;43.240;27.880;2022-12-07T06:53:44;100269.44;;;8.25;100.00
56270;BME280;42176;43.240;27.880;2022-12-07T06:56:09;100272.03;;;7.18;100.00
56270;BME280;42176;43.240;27.880;2022-12-07T06:58:35;100269.22;;;8.44;100.00
56270;BME280;42176;43.240;27.880;2022-12-07T07:01:00;100273.66;;;9.76;100.00
56270;BME280;42176;43.240;27.880;2022-12-07T07:03:26;100244.91;;;10.53;100.00
56270;BME280;42176;43.240;27.880;2022-12-07T07:05:52;100266.59;;;10.74;100.00
56270;BME280;42176;43.240;27.880;2022-12-07T07:08:17;100253.59;;;11.43;97.89
56270;BME280;42176;43.240;27.880;2022-12-07T07:10:42;100257.09;;;12.16;93.57
56270;BME280;42176;43.240;27.880;2022-12-07T07:13:08;100251.34;;;12.94;88.37
56270;BME280;42176;43.240;27.880;2022-12-07T07:15:34;100262.28;;;13.99;82.16
56270;BME280;42176;43.240;27.880;2022-12-07T07:18:00;100263.91;;;15.03;74.97
56270;BME280;42176;43.240;27.880;2022-12-07T07:20:25;100256.13;;;16.08;66.79
56270;BME280;42176;43.240;27.880;2022-12-07T07:22:54;100261.75;;;16.22;65.16
56270;BME280;42176;43.240;27.880;2022-12-07T07:25:19;100262.31;;;16.31;63.24
56270;BME280;42176;43.240;27.880;2022-12-07T07:27:44;100265.09;;;11.80;81.11
56270;BME280;42176;43.240;27.880;2022-12-07T07:30:10;100273.22;;;10.95;90.28
56270;BME280;42176;43.240;27.880;2022-12-07T07:32:36;100273.53;;;12.63;88.23
56270;BME280;42176;43.240;27.880;2022-12-07T07:35:02;100270.63;;;13.03;80.86
56270;BME280;42176;43.240;27.880;2022-12-07T07:37:27;100267.88;;;10.53;90.15
56270;BME280;42176;43.240;27.880;2022-12-07T07:39:53;100259.09;;;12.08;88.17
56270;BME280;42176;43.240;27.880;2022-12-07T07:42:19;100263.88;;;13.78;78.36
56270;BME280;42176;43.240;27.880;2022-12-07T07:44:44;100259.44;;;14.80;70.03
56270;BME280;42176;43.240;27.880;2022-12-07T07:47:10;100266.63;;;15.01;67.18
56270;BME280;42176;43.240;27.880;2022-12-07T07:49:35;100264.78;;;15.72;63.20
56270;BME280;42176;43.240;27.880;2022-12-07T07:52:01;100261.66;;;13.91;67.59
56270;BME280;42176;43.240;27.880;2022-12-07T07:54:26;100284.59;;;11.79;84.33
56270;BME280;42176;43.240;27.880;2022-12-07T07:56:52;100271.16;;;13.44;77.52
56270;BME280;42176;43.240;27.880;2022-12-07T07:59:18;100277.13;;;12.92;74.67
56270;BME280;42176;43.240;27.880;2022-12-07T08:01:43;100279.09;;;11.09;84.48
56270;BME280;42176;43.240;27.880;2022-12-07T08:04:09;100277.31;;;12.55;82.47
56270;BME280;42176;43.240;27.880;2022-12-07T08:06:34;100277.56;;;13.94;74.34
56270;BME280;42176;43.240;27.880;2022-12-07T08:09:00;100271.63;;;14.61;68.15
56270;BME280;42176;43.240;27.880;2022-12-07T08:11:25;100242.78;;;13.43;69.29
56270;BME280;42176;43.240;27.880;2022-12-07T08:13:51;100278.97;;;10.73;85.62
56270;BME280;42176;43.240;27.880;2022-12-07T08:16:16;100282.38;;;11.60;85.97
56270;BME280;42176;43.240;27.880;2022-12-07T08:18:42;100275.19;;;12.68;78.64
56270;BME280;42176;43.240;27.880;2022-12-07T08:21:11;100275.00;;;13.34;73.49
56270;BME280;42176;43.240;27.880;2022-12-07T08:23:37;100275.09;;;13.31;72.83
56270;BME280;42176;43.240;27.880;2022-12-07T08:26:07;100276.88;;;13.60;70.80
56270;BME280;42176;43.240;27.880;2022-12-07T08:28:33;100263.50;;;13.62;70.04
56270;BME280;42176;43.240;27.880;2022-12-07T08:31:03;100269.78;;;13.31;70.63
56270;BME280;42176;43.240;27.880;2022-12-07T08:33:29;100265.00;;;12.82;74.57
56270;BME280;42176;43.240;27.880;2022-12-07T08:36:01;100263.31;;;12.79;75.47
56270;BME280;42176;43.240;27.880;2022-12-07T08:38:27;100260.16;;;12.97;75.47
56270;BME280;42176;43.240;27.880;2022-12-07T08:40:56;100263.66;;;12.99;74.80
56270;BME280;42176;43.240;27.880;2022-12-07T08:43:22;100260.59;;;13.11;75.24
56270;BME280;42176;43.240;27.880;2022-12-07T08:46:03;100264.94;;;13.15;73.61
56270;BME280;42176;43.240;27.880;2022-12-07T08:48:29;100267.06;;;13.02;73.25
56270;BME280;42176;43.240;27.880;2022-12-07T08:50:55;100257.03;;;12.82;73.73
56270;BME280;42176;43.240;27.880;2022-12-07T08:53:21;100253.63;;;12.77;75.28
56270;BME280;42176;43.240;27.880;2022-12-07T08:55:48;100245.78;;;12.72;75.20
56270;BME280;42176;43.240;27.880;2022-12-07T08:58:13;100251.09;;;12.74;74.74
56270;BME280;42176;43.240;27.880;2022-12-07T09:00:39;100249.88;;;12.84;75.15
56270;BME280;42176;43.240;27.880;2022-12-07T09:03:04;100239.63;;;12.72;75.88
56270;BME280;42176;43.240;27.880;2022-12-07T09:05:32;100244.66;;;12.81;75.42
56270;BME280;42176;43.240;27.880;2022-12-07T09:08:00;100245.53;;;12.82;75.68
56270;BME280;42176;43.240;27.880;2022-12-07T09:10:26;100239.41;;;12.78;75.93
56270;BME280;42176;43.240;27.880;2022-12-07T09:12:52;100237.94;;;12.68;75.78
56270;BME280;42176;43.240;27.880;2022-12-07T09:15:18;100226.97;;;12.48;76.20
56270;BME280;42176;43.240;27.880;2022-12-07T09:17:43;100234.75;;;12.55;76.59
56270;BME280;42176;43.240;27.880;2022-12-07T09:20:09;100216.69;;;12.36;77.24
56270;BME280;42176;43.240;27.880;2022-12-07T09:22:35;100216.22;;;12.22;77.59
56270;BME280;42176;43.240;27.880;2022-12-07T09:25:01;100225.91;;;12.23;78.29
56270;BME280;42176;43.240;27.880;2022-12-07T09:27:27;100226.88;;;12.20;78.27
56270;BME280;42176;43.240;27.880;2022-12-07T09:29:52;100228.47;;;12.27;79.42
56270;BME280;42176;43.240;27.880;2022-12-07T09:32:18;100208.94;;;12.28;78.58
56270;BME280;42176;43.240;27.880;2022-12-07T09:34:43;100210.34;;;12.42;77.74
56270;BME280;42176;43.240;27.880;2022-12-07T09:37:09;100209.84;;;12.27;78.01
56270;BME280;42176;43.240;27.880;2022-12-07T09:39:37;100203.63;;;12.28;77.27
56270;BME280;42176;43.240;27.880;2022-12-07T09:42:04;100203.44;;;12.34;78.81
56270;BME280;42176;43.240;27.880;2022-12-07T09:44:30;100204.31;;;12.35;78.57
56270;BME280;42176;43.240;27.880;2022-12-07T09:46:56;100203.50;;;12.31;79.04
56270;BME280;42176;43.240;27.880;2022-12-07T09:49:24;100198.13;;;12.34;79.09
56270;BME280;42176;43.240;27.880;2022-12-07T09:52:19;100203.19;;;12.44;79.06
56270;BME280;42176;43.240;27.880;2022-12-07T09:54:48;100192.56;;;12.44;78.34
56270;BME280;42176;43.240;27.880;2022-12-07T09:57:14;100195.09;;;12.47;77.37
56270;BME280;42176;43.240;27.880;2022-12-07T09:59:40;100199.47;;;12.49;78.20
56270;BME280;42176;43.240;27.880;2022-12-07T10:02:28;100201.84;;;12.59;78.04
56270;BME280;42176;43.240;27.880;2022-12-07T10:04:58;100190.75;;;12.74;77.29
56270;BME280;42176;43.240;27.880;2022-12-07T10:07:24;100186.13;;;12.81;77.75
56270;BME280;42176;43.240;27.880;2022-12-07T10:09:50;100182.56;;;12.82;78.07
56270;BME280;42176;43.240;27.880;2022-12-07T10:12:15;100179.88;;;12.82;77.24
56270;BME280;42176;43.240;27.880;2022-12-07T10:14:54;100177.06;;;12.88;76.83
56270;BME280;42176;43.240;27.880;2022-12-07T10:17:41;100169.69;;;12.97;77.31
56270;BME280;42176;43.240;27.880;2022-12-07T10:20:20;100163.03;;;13.12;76.91
56270;BME280;42176;43.240;27.880;2022-12-07T10:25:29;100165.84;;;13.07;74.58
56270;BME280;42176;43.240;27.880;2022-12-07T10:28:03;100165.84;;;13.07;75.63
56270;BME280;42176;43.240;27.880;2022-12-07T10:30:57;100155.28;;;13.04;75.78
56270;BME280;42176;43.240;27.880;2022-12-07T10:33:37;100153.72;;;12.97;76.16
56270;BME280;42176;43.240;27.880;2022-12-07T10:36:19;100153.81;;;12.93;76.40
56270;BME280;42176;43.240;27.880;2022-12-07T10:38:51;100145.22;;;12.85;76.65
56270;BME280;42176;43.240;27.880;2022-12-07T10:41:17;100138.34;;;12.78;76.98
56270;BME280;42176;43.240;27.880;2022-12-07T10:43:53;100137.97;;;12.62;77.41
56270;BME280;42176;43.240;27.880;2022-12-07T10:54:40;100142.28;;;12.64;76.79
56270;BME280;42176;43.240;27.880;2022-12-07T11:00:49;100128.28;;;12.59;76.56
56270;BME280;42176;43.240;27.880;2022-12-07T11:03:19;100139.00;;;12.56;76.52
56270;BME280;42176;43.240;27.880;2022-12-07T11:06:54;100135.22;;;12.63;76.47
56270;BME280;42176;43.240;27.880;2022-12-07T11:16:55;100100.81;;;12.87;75.81
56270;BME280;42176;43.240;27.880;2022-12-07T11:19:42;100110.41;;;12.93;74.84
56270;BME280;42176;43.240;27.880;2022-12-07T11:22:35;100105.75;;;13.00;74.82
56270;BME280;42176;43.240;27.880;2022-12-07T11:31:05;100105.56;;;13.06;75.20
56270;BME280;42176;43.240;27.880;2022-12-07T11:36:50;100096.94;;;12.98;75.36
56270;BME280;42176;43.240;27.880;2022-12-07T11:39:33;100093.53;;;12.92;75.75
56270;BME280;42176;43.240;27.880;2022-12-07T11:44:52;100085.28;;;13.02;75.22
56270;BME280;42176;43.240;27.880;2022-12-07T11:47:45;100093.03;;;13.08;74.78
56270;BME280;42176;43.240;27.880;2022-12-07T11:50:33;100098.34;;;13.08;74.51
56270;BME280;42176;43.240;27.880;2022-12-07T11:53:10;100086.00;;;13.07;74.40
56270;BME280;42176;43.240;27.880;2022-12-07T11:55:50;100075.56;;;13.01;74.10
56270;BME280;42176;43.240;27.880;2022-12-07T12:01:35;100080.50;;;12.85;75.25
56270;BME280;42176;43.240;27.880;2022-12-07T12:05:19;100077.72;;;12.89;75.47
56270;BME280;42176;43.240;27.880;2022-12-07T12:07:16;100078.63;;;12.88;75.38
56270;BME280;42176;43.240;27.880;2022-12-07T12:09:52;100072.66;;;12.80;75.20
56270;BME280;42176;43.240;27.880;2022-12-07T12:21:23;100068.41;;;12.46;77.80
56270;BME280;42176;43.240;27.880;2022-12-07T12:23:22;100063.88;;;12.49;78.20
56270;BME280;42176;43.240;27.880;2022-12-07T12:25:55;100058.47;;;12.53;76.84
56270;BME280;42176;43.240;27.880;2022-12-07T12:29:03;100055.84;;;12.51;76.92
56270;BME280;42176;43.240;27.880;2022-12-07T12:33:55;100064.66;;;12.53;77.72
56270;BME280;42176;43.240;27.880;2022-12-07T12:47:39;100055.75;;;12.54;77.42
56270;BME280;42176;43.240;27.880;2022-12-07T12:50:15;100049.63;;;12.52;77.66
56270;BME280;42176;43.240;27.880;2022-12-07T12:57:36;100051.00;;;12.36;77.63
56270;BME280;42176;43.240;27.880;2022-12-07T13:00:21;100052.94;;;12.30;78.21
56270;BME280;42176;43.240;27.880;2022-12-07T13:02:54;100054.97;;;12.22;79.07
56270;BME280;42176;43.240;27.880;2022-12-07T13:05:25;100046.44;;;12.11;80.27
56270;BME280;42176;43.240;27.880;2022-12-07T13:08:02;100051.94;;;12.05;81.50
56270;BME280;42176;43.240;27.880;2022-12-07T13:20:51;100052.00;;;11.70;84.70
56270;BME280;42176;43.240;27.880;2022-12-07T13:23:22;100035.38;;;11.63;84.40
56270;BME280;42176;43.240;27.880;2022-12-07T13:26:15;100040.63;;;11.66;84.68
56270;BME280;42176;43.240;27.880;2022-12-07T13:33:44;100046.00;;;11.63;84.21
56270;BME280;42176;43.240;27.880;2022-12-07T13:36:20;100051.31;;;11.63;84.27
56270;BME280;42176;43.240;27.880;2022-12-07T13:41:44;100039.81;;;11.63;83.94
56270;BME280;42176;43.240;27.880;2022-12-07T13:44:14;100043.38;;;11.62;83.76
56270;BME280;42176;43.240;27.880;2022-12-07T13:46:49;100031.88;;;10.57;87.52
56270;BME280;42176;43.240;27.880;2022-12-07T13:49:24;100042.41;;;9.32;98.71
56270;BME280;42176;43.240;27.880;2022-12-07T13:51:51;100041.91;;;9.59;100.00
56270;BME280;42176;43.240;27.880;2022-12-07T13:54:17;100046.88;;;9.75;100.00
56270;BME280;42176;43.240;27.880;2022-12-07T13:56:43;100047.47;;;9.89;99.75
56270;BME280;42176;43.240;27.880;2022-12-07T13:59:16;100048.00;;;10.05;98.63
56270;BME280;42176;43.240;27.880;2022-12-07T14:01:44;100061.81;;;10.21;97.11
56270;BME280;42176;43.240;27.880;2022-12-07T14:04:30;100059.66;;;9.98;95.10
56270;BME280;42176;43.240;27.880;2022-12-07T14:06:57;100056.41;;;9.37;100.00
56270;BME280;42176;43.240;27.880;2022-12-07T14:09:25;100055.19;;;9.56;100.00
56270;BME280;42176;43.240;27.880;2022-12-07T14:11:54;100052.19;;;9.75;99.74
56270;BME280;42176;43.240;27.880;2022-12-07T14:14:25;100053.63;;;9.92;99.13
56270;BME280;42176;43.240;27.880;2022-12-07T14:16:58;100049.75;;;10.08;98.12
56270;BME280;42176;43.240;27.880;2022-12-07T14:19:57;100047.75;;;9.28;100.00
56270;BME280;42176;43.240;27.880;2022-12-07T14:22:37;100052.91;;;9.35;100.00
56270;BME280;42176;43.240;27.880;2022-12-07T14:25:17;100050.69;;;9.62;100.00
56270;BME280;42176;43.240;27.880;2022-12-07T14:30:18;100055.47;;;9.86;99.55
56270;BME280;42176;43.240;27.880;2022-12-07T14:32:44;100053.47;;;9.98;98.15
56270;BME280;42176;43.240;27.880;2022-12-07T14:35:16;100049.81;;;10.05;97.88
56270;BME280;42176;43.240;27.880;2022-12-07T14:37:44;100054.81;;;10.17;97.20
56270;BME280;42176;43.240;27.880;2022-12-07T14:40:17;100043.16;;;10.26;96.17
56270;BME280;42176;43.240;27.880;2022-12-07T14:42:45;100030.81;;;10.27;95.18
56270;BME280;42176;43.240;27.880;2022-12-07T14:45:21;100044.84;;;10.30;95.06
56270;BME280;42176;43.240;27.880;2022-12-07T14:47:46;100044.09;;;10.24;95.29
56270;BME280;42176;43.240;27.880;2022-12-07T14:50:18;100039.00;;;10.14;95.39
56270;BME280;42176;43.240;27.880;2022-12-07T14:52:47;100041.75;;;10.10;95.76